sensor_id;sensor_type;location;lat;lon;timestamp;temperature;humidity
20740;DHT22;10530;49.968;19.844;2023-12-07T00:04:39;-2.80;99.90
20740;DHT22;10530;49.968;19.844;2023-12-07T00:09:42;-2.80;99.90
20740;DHT22;10530;49.968;19.844;2023-12-07T00:14:45;-2.70;99.90
20740;DHT22;10530;49.968;19.844;2023-12-07T00:19:50;-2.80;99.90
20740;DHT22;10530;49.968;19.844;2023-12-07T00:24:53;-2.80;99.90
20740;DHT22;10530;49.968;19.844;2023-12-07T00:29:56;-2.70;99.90
20740;DHT22;10530;49.968;19.844;2023-12-07T00:34:59;-2.70;99.90
20740;DHT22;10530;49.968;19.844;2023-12-07T00:40:02;-2.70;99.90
20740;DHT22;10530;49.968;19.844;2023-12-07T00:45:06;-2.70;99.90
20740;DHT22;10530;49.968;19.844;2023-12-07T00:50:12;-2.70;99.90
20740;DHT22;10530;49.968;19.844;2023-12-07T00:55:16;-2.60;99.90
20740;DHT22;10530;49.968;19.844;2023-12-07T01:00:19;-2.60;99.90
20740;DHT22;10530;49.968;19.844;2023-12-07T01:05:23;-2.60;99.90
20740;DHT22;10530;49.968;19.844;2023-12-07T01:10:26;-2.60;99.90
20740;DHT22;10530;49.968;19.844;2023-12-07T01:15:28;-2.60;99.90
20740;DHT22;10530;49.968;19.844;2023-12-07T01:20:31;-2.70;99.90
20740;DHT22;10530;49.968;19.844;2023-12-07T01:25:34;-2.60;99.90
20740;DHT22;10530;49.968;19.844;2023-12-07T01:30:37;-2.60;99.90
20740;DHT22;10530;49.968;19.844;2023-12-07T01:35:40;-2.50;99.90
20740;DHT22;10530;49.968;19.844;2023-12-07T01:40:43;-2.50;99.90
20740;DHT22;10530;49.968;19.844;2023-12-07T01:45:48;-2.60;99.90
20740;DHT22;10530;49.968;19.844;2023-12-07T01:50:55;-2.60;99.90
20740;DHT22;10530;49.968;19.844;2023-12-07T01:55:58;-2.60;99.90
20740;DHT22;10530;49.968;19.844;2023-12-07T02:01:02;-2.70;99.90
20740;DHT22;10530;49.968;19.844;2023-12-07T02:06:05;-2.70;99.90
20740;DHT22;10530;49.968;19.844;2023-12-07T02:11:09;-2.70;99.90
20740;DHT22;10530;49.968;19.844;2023-12-07T02:16:25;-2.70;99.90
20740;DHT22;10530;49.968;19.844;2023-12-07T02:21:40;-2.70;99.90
20740;DHT22;10530;49.968;19.844;2023-12-07T02:26:48;-2.70;99.90
20740;DHT22;10530;49.968;19.844;2023-12-07T02:31:51;-2.80;99.90
20740;DHT22;10530;49.968;19.844;2023-12-07T02:36:55;-2.80;99.90
20740;DHT22;10530;49.968;19.844;2023-12-07T02:42:00;-2.70;99.90
20740;DHT22;10530;49.968;19.844;2023-12-07T02:47:03;-2.70;99.90
20740;DHT22;10530;49.968;19.844;2023-12-07T02:52:06;-2.70;99.90
20740;DHT22;10530;49.968;19.844;2023-12-07T02:57:09;-2.70;99.90
20740;DHT22;10530;49.968;19.844;2023-12-07T03:02:12;-2.80;99.90
20740;DHT22;10530;49.968;19.844;2023-12-07T03:07:15;-2.90;99.90
20740;DHT22;10530;49.968;19.844;2023-12-07T03:12:18;-2.80;99.90
20740;DHT22;10530;49.968;19.844;2023-12-07T03:17:21;-2.70;99.90
20740;DHT22;10530;49.968;19.844;2023-12-07T03:22:24;-2.70;99.90
20740;DHT22;10530;49.968;19.844;2023-12-07T03:27:27;-2.70;99.90
20740;DHT22;10530;49.968;19.844;2023-12-07T03:32:31;-2.70;99.90
20740;DHT22;10530;49.968;19.844;2023-12-07T03:37:34;-2.70;99.90
20740;DHT22;10530;49.968;19.844;2023-12-07T03:42:37;-2.60;99.90
20740;DHT22;10530;49.968;19.844;2023-12-07T03:47:57;-2.60;99.90
20740;DHT22;10530;49.968;19.844;2023-12-07T03:53:00;-2.60;99.90
20740;DHT22;10530;49.968;19.844;2023-12-07T03:58:03;-2.60;99.90
20740;DHT22;10530;49.968;19.844;2023-12-07T04:03:06;-2.50;99.90
20740;DHT22;10530;49.968;19.844;2023-12-07T04:08:09;-2.50;99.90
20740;DHT22;10530;49.968;19.844;2023-12-07T04:13:12;-2.50;99.90
20740;DHT22;10530;49.968;19.844;2023-12-07T04:18:15;-2.50;99.90
20740;DHT22;10530;49.968;19.844;2023-12-07T04:23:18;-2.60;99.90
20740;DHT22;10530;49.968;19.844;2023-12-07T04:28:21;-2.60;99.90
20740;DHT22;10530;49.968;19.844;2023-12-07T04:33:24;-2.60;99.90
20740;DHT22;10530;49.968;19.844;2023-12-07T04:38:27;-2.60;99.90
20740;DHT22;10530;49.968;19.844;2023-12-07T04:43:30;-2.70;99.90
20740;DHT22;10530;49.968;19.844;2023-12-07T04:48:33;-2.60;99.90
20740;DHT22;10530;49.968;19.844;2023-12-07T04:53:35;-2.60;99.90
20740;DHT22;10530;49.968;19.844;2023-12-07T04:58:38;-2.60;99.90
20740;DHT22;10530;49.968;19.844;2023-12-07T05:03:41;-2.60;99.90
20740;DHT22;10530;49.968;19.844;2023-12-07T05:08:44;-2.60;99.90
20740;DHT22;10530;49.968;19.844;2023-12-07T05:13:47;-2.60;99.90
20740;DHT22;10530;49.968;19.844;2023-12-07T05:18:50;-2.70;99.90
20740;DHT22;10530;49.968;19.844;2023-12-07T05:23:53;-2.60;99.90
20740;DHT22;10530;49.968;19.844;2023-12-07T05:28:56;-2.60;99.90
20740;DHT22;10530;49.968;19.844;2023-12-07T05:33:59;-2.60;99.90
20740;DHT22;10530;49.968;19.844;2023-12-07T05:39:03;-2.60;99.90
20740;DHT22;10530;49.968;19.844;2023-12-07T05:44:10;-2.70;99.90
20740;DHT22;10530;49.968;19.844;2023-12-07T05:49:12;-2.70;99.90
20740;DHT22;10530;49.968;19.844;2023-12-07T05:54:15;-2.70;99.90
20740;DHT22;10530;49.968;19.844;2023-12-07T05:59:18;-2.70;99.90
20740;DHT22;10530;49.968;19.844;2023-12-07T06:04:22;-2.60;99.90
20740;DHT22;10530;49.968;19.844;2023-12-07T06:09:25;-2.60;99.90
20740;DHT22;10530;49.968;19.844;2023-12-07T06:14:28;-2.60;99.90
20740;DHT22;10530;49.968;19.844;2023-12-07T06:19:31;-2.70;99.90
20740;DHT22;10530;49.968;19.844;2023-12-07T06:24:34;-2.60;99.90
20740;DHT22;10530;49.968;19.844;2023-12-07T06:29:39;-2.60;99.90
20740;DHT22;10530;49.968;19.844;2023-12-07T06:34:42;-2.50;99.90
20740;DHT22;10530;49.968;19.844;2023-12-07T06:39:45;-2.50;99.90
20740;DHT22;10530;49.968;19.844;2023-12-07T06:44:48;-2.40;99.90
20740;DHT22;10530;49.968;19.844;2023-12-07T06:49:52;-2.40;99.90
20740;DHT22;10530;49.968;19.844;2023-12-07T06:54:55;-2.40;99.90
20740;DHT22;10530;49.968;19.844;2023-12-07T06:59:58;-2.40;99.90
20740;DHT22;10530;49.968;19.844;2023-12-07T07:05:02;-2.20;99.90
20740;DHT22;10530;49.968;19.844;2023-12-07T07:10:05;-2.10;99.90
20740;DHT22;10530;49.968;19.844;2023-12-07T07:15:09;-2.10;99.90
20740;DHT22;10530;49.968;19.844;2023-12-07T07:20:12;-2.10;99.90
20740;DHT22;10530;49.968;19.844;2023-12-07T07:25:15;-2.10;99.90
20740;DHT22;10530;49.968;19.844;2023-12-07T07:30:19;-1.90;99.90
20740;DHT22;10530;49.968;19.844;2023-12-07T07:35:22;-1.90;99.90
20740;DHT22;10530;49.968;19.844;2023-12-07T07:40:25;-1.70;99.90
20740;DHT22;10530;49.968;19.844;2023-12-07T07:45:27;-1.70;99.90
20740;DHT22;10530;49.968;19.844;2023-12-07T07:50:30;-1.60;99.90
20740;DHT22;10530;49.968;19.844;2023-12-07T07:55:33;-1.40;99.90
20740;DHT22;10530;49.968;19.844;2023-12-07T08:00:36;-1.50;99.90
20740;DHT22;10530;49.968;19.844;2023-12-07T08:05:39;-1.50;99.90
20740;DHT22;10530;49.968;19.844;2023-12-07T08:10:42;-1.30;99.90
20740;DHT22;10530;49.968;19.844;2023-12-07T08:15:57;-1.20;99.90
20740;DHT22;10530;49.968;19.844;2023-12-07T08:21:00;-1.20;99.90
20740;DHT22;10530;49.968;19.844;2023-12-07T08:26:03;-1.20;99.90
20740;DHT22;10530;49.968;19.844;2023-12-07T08:31:06;-1.20;99.90
20740;DHT22;10530;49.968;19.844;2023-12-07T08:36:09;-1.10;99.90
20740;DHT22;10530;49.968;19.844;2023-12-07T08:41:13;-1.10;99.90
20740;DHT22;10530;49.968;19.844;2023-12-07T08:46:16;-1.00;99.90
20740;DHT22;10530;49.968;19.844;2023-12-07T08:51:19;-0.90;99.90
20740;DHT22;10530;49.968;19.844;2023-12-07T08:56:22;-0.90;99.90
20740;DHT22;10530;49.968;19.844;2023-12-07T09:01:25;-0.90;99.90
20740;DHT22;10530;49.968;19.844;2023-12-07T09:06:35;-0.80;99.90
20740;DHT22;10530;49.968;19.844;2023-12-07T09:11:39;-0.70;99.90
20740;DHT22;10530;49.968;19.844;2023-12-07T09:16:45;-0.80;99.90
20740;DHT22;10530;49.968;19.844;2023-12-07T09:21:48;-0.50;99.90
20740;DHT22;10530;49.968;19.844;2023-12-07T09:26:51;-0.50;99.90
20740;DHT22;10530;49.968;19.844;2023-12-07T09:31:54;-0.40;99.90
20740;DHT22;10530;49.968;19.844;2023-12-07T09:37:08;-0.40;99.90
20740;DHT22;10530;49.968;19.844;2023-12-07T09:42:11;-0.20;99.90
20740;DHT22;10530;49.968;19.844;2023-12-07T09:47:15;-0.10;99.90
20740;DHT22;10530;49.968;19.844;2023-12-07T09:52:29;-0.10;99.90
20740;DHT22;10530;49.968;19.844;2023-12-07T09:57:32;-0.10;99.90
20740;DHT22;10530;49.968;19.844;2023-12-07T10:02:37;-0.20;99.90
20740;DHT22;10530;49.968;19.844;2023-12-07T10:07:42;0.00;99.90
20740;DHT22;10530;49.968;19.844;2023-12-07T10:12:56;0.10;99.90
20740;DHT22;10530;49.968;19.844;2023-12-07T10:18:01;0.10;99.90
20740;DHT22;10530;49.968;19.844;2023-12-07T10:23:06;0.10;99.90
20740;DHT22;10530;49.968;19.844;2023-12-07T10:28:12;0.20;99.90
20740;DHT22;10530;49.968;19.844;2023-12-07T10:33:15;0.20;99.90
20740;DHT22;10530;49.968;19.844;2023-12-07T10:38:18;0.20;99.90
20740;DHT22;10530;49.968;19.844;2023-12-07T10:43:22;0.10;99.90
20740;DHT22;10530;49.968;19.844;2023-12-07T10:48:26;0.20;99.90
20740;DHT22;10530;49.968;19.844;2023-12-07T10:53:37;0.00;99.90
20740;DHT22;10530;49.968;19.844;2023-12-07T10:58:43;0.20;99.90
20740;DHT22;10530;49.968;19.844;2023-12-07T11:03:50;0.20;99.90
20740;DHT22;10530;49.968;19.844;2023-12-07T11:08:58;0.30;99.90
20740;DHT22;10530;49.968;19.844;2023-12-07T11:14:07;0.50;99.90
20740;DHT22;10530;49.968;19.844;2023-12-07T11:24:37;0.50;99.90
20740;DHT22;10530;49.968;19.844;2023-12-07T11:29:40;0.60;99.90
20740;DHT22;10530;49.968;19.844;2023-12-07T11:34:43;0.60;99.90
20740;DHT22;10530;49.968;19.844;2023-12-07T11:39:47;0.60;99.90
20740;DHT22;10530;49.968;19.844;2023-12-07T11:44:50;0.60;99.90
20740;DHT22;10530;49.968;19.844;2023-12-07T11:49:54;0.60;99.90
20740;DHT22;10530;49.968;19.844;2023-12-07T11:54:56;0.60;99.90
20740;DHT22;10530;49.968;19.844;2023-12-07T11:59:59;0.50;99.90
20740;DHT22;10530;49.968;19.844;2023-12-07T12:05:04;0.50;99.90
20740;DHT22;10530;49.968;19.844;2023-12-07T12:10:07;0.50;99.90
20740;DHT22;10530;49.968;19.844;2023-12-07T12:15:10;0.40;99.90
20740;DHT22;10530;49.968;19.844;2023-12-07T12:20:14;0.30;99.90
20740;DHT22;10530;49.968;19.844;2023-12-07T12:25:24;0.30;99.90
20740;DHT22;10530;49.968;19.844;2023-12-07T12:30:36;0.20;99.90
20740;DHT22;10530;49.968;19.844;2023-12-07T12:35:40;0.30;99.90
20740;DHT22;10530;49.968;19.844;2023-12-07T12:40:43;0.30;99.90
20740;DHT22;10530;49.968;19.844;2023-12-07T12:45:46;0.10;99.90
20740;DHT22;10530;49.968;19.844;2023-12-07T12:51:08;0.20;99.90
20740;DHT22;10530;49.968;19.844;2023-12-07T12:56:11;0.20;99.90
20740;DHT22;10530;49.968;19.844;2023-12-07T13:01:15;0.20;99.90
20740;DHT22;10530;49.968;19.844;2023-12-07T13:06:20;0.30;99.90
20740;DHT22;10530;49.968;19.844;2023-12-07T13:11:23;0.30;99.90
20740;DHT22;10530;49.968;19.844;2023-12-07T13:16:26;0.20;99.90
20740;DHT22;10530;49.968;19.844;2023-12-07T13:21:29;0.10;99.90
20740;DHT22;10530;49.968;19.844;2023-12-07T13:26:32;0.10;99.90
20740;DHT22;10530;49.968;19.844;2023-12-07T13:31:35;0.00;99.90
20740;DHT22;10530;49.968;19.844;2023-12-07T13:36:38;0.00;99.90
20740;DHT22;10530;49.968;19.844;2023-12-07T13:41:42;-0.10;99.90
20740;DHT22;10530;49.968;19.844;2023-12-07T13:46:45;-0.20;99.90
20740;DHT22;10530;49.968;19.844;2023-12-07T13:51:50;-0.20;99.90
20740;DHT22;10530;49.968;19.844;2023-12-07T13:56:53;-0.30;99.90
20740;DHT22;10530;49.968;19.844;2023-12-07T14:01:56;-0.30;99.90
20740;DHT22;10530;49.968;19.844;2023-12-07T14:07:14;-0.50;99.90
20740;DHT22;10530;49.968;19.844;2023-12-07T14:12:17;-0.40;99.90
20740;DHT22;10530;49.968;19.844;2023-12-07T14:17:20;-0.40;99.90
20740;DHT22;10530;49.968;19.844;2023-12-07T14:22:38;-0.60;99.90
20740;DHT22;10530;49.968;19.844;2023-12-07T14:27:42;-0.50;99.90
20740;DHT22;10530;49.968;19.844;2023-12-07T14:32:45;-0.50;99.90
20740;DHT22;10530;49.968;19.844;2023-12-07T14:37:55;-0.60;99.90
20740;DHT22;10530;49.968;19.844;2023-12-07T14:42:57;-0.60;99.90
20740;DHT22;10530;49.968;19.844;2023-12-07T14:48:00;-0.60;99.90
20740;DHT22;10530;49.968;19.844;2023-12-07T14:53:04;-0.50;99.90
20740;DHT22;10530;49.968;19.844;2023-12-07T14:58:07;-0.60;99.90
20740;DHT22;10530;49.968;19.844;2023-12-07T15:03:10;-0.60;99.90
20740;DHT22;10530;49.968;19.844;2023-12-07T15:08:13;-0.60;99.90
20740;DHT22;10530;49.968;19.844;2023-12-07T15:13:16;-0.60;99.90
20740;DHT22;10530;49.968;19.844;2023-12-07T15:18:20;-0.70;99.90
20740;DHT22;10530;49.968;19.844;2023-12-07T15:23:23;-0.60;99.90
20740;DHT22;10530;49.968;19.844;2023-12-07T15:28:26;-0.60;99.90
20740;DHT22;10530;49.968;19.844;2023-12-07T15:33:29;-0.70;99.90
20740;DHT22;10530;49.968;19.844;2023-12-07T15:38:33;-0.60;99.90
20740;DHT22;10530;49.968;19.844;2023-12-07T15:43:36;-0.70;99.90
20740;DHT22;10530;49.968;19.844;2023-12-07T15:48:39;-0.70;99.90
20740;DHT22;10530;49.968;19.844;2023-12-07T15:53:42;-0.60;99.90
20740;DHT22;10530;49.968;19.844;2023-12-07T15:58:46;-0.60;99.90
20740;DHT22;10530;49.968;19.844;2023-12-07T16:03:49;-0.70;99.90
20740;DHT22;10530;49.968;19.844;2023-12-07T16:08:52;-0.70;99.90
20740;DHT22;10530;49.968;19.844;2023-12-07T16:13:55;-0.70;99.90
20740;DHT22;10530;49.968;19.844;2023-12-07T16:18:58;-0.70;99.90
20740;DHT22;10530;49.968;19.844;2023-12-07T16:24:01;-0.80;99.90
20740;DHT22;10530;49.968;19.844;2023-12-07T16:29:05;-0.70;99.90
20740;DHT22;10530;49.968;19.844;2023-12-07T16:34:08;-0.70;99.90
20740;DHT22;10530;49.968;19.844;2023-12-07T16:39:13;-0.70;99.90
20740;DHT22;10530;49.968;19.844;2023-12-07T16:44:16;-0.70;99.90
20740;DHT22;10530;49.968;19.844;2023-12-07T16:49:19;-0.60;99.90
20740;DHT22;10530;49.968;19.844;2023-12-07T16:54:22;-0.70;99.90
20740;DHT22;10530;49.968;19.844;2023-12-07T16:59:27;-0.70;99.90
20740;DHT22;10530;49.968;19.844;2023-12-07T17:04:30;-0.80;99.90
20740;DHT22;10530;49.968;19.844;2023-12-07T17:09:33;-0.70;99.90
20740;DHT22;10530;49.968;19.844;2023-12-07T17:14:36;-0.70;99.90
20740;DHT22;10530;49.968;19.844;2023-12-07T17:19:41;-0.80;99.90
20740;DHT22;10530;49.968;19.844;2023-12-07T17:24:52;-0.80;99.90
20740;DHT22;10530;49.968;19.844;2023-12-07T17:29:55;-0.70;99.90
20740;DHT22;10530;49.968;19.844;2023-12-07T17:34:58;-0.70;99.90
20740;DHT22;10530;49.968;19.844;2023-12-07T17:40:01;-0.70;99.90
20740;DHT22;10530;49.968;19.844;2023-12-07T17:45:05;-0.70;99.90
20740;DHT22;10530;49.968;19.844;2023-12-07T17:50:09;-0.70;99.90
20740;DHT22;10530;49.968;19.844;2023-12-07T17:55:12;-0.70;99.90
20740;DHT22;10530;49.968;19.844;2023-12-07T18:00:15;-0.70;99.90
20740;DHT22;10530;49.968;19.844;2023-12-07T18:05:18;-0.70;99.90
20740;DHT22;10530;49.968;19.844;2023-12-07T18:10:21;-0.70;99.90
20740;DHT22;10530;49.968;19.844;2023-12-07T18:15:26;-0.70;99.90
20740;DHT22;10530;49.968;19.844;2023-12-07T18:20:29;-0.60;99.90
20740;DHT22;10530;49.968;19.844;2023-12-07T18:25:32;-0.60;99.90
20740;DHT22;10530;49.968;19.844;2023-12-07T18:30:35;-0.70;99.90
20740;DHT22;10530;49.968;19.844;2023-12-07T18:35:41;-0.70;99.90
20740;DHT22;10530;49.968;19.844;2023-12-07T18:40:44;-0.60;99.90
20740;DHT22;10530;49.968;19.844;2023-12-07T18:45:47;-0.70;99.90
20740;DHT22;10530;49.968;19.844;2023-12-07T18:50:50;-0.70;99.90
20740;DHT22;10530;49.968;19.844;2023-12-07T18:55:54;-0.70;99.90
20740;DHT22;10530;49.968;19.844;2023-12-07T19:00:57;-0.70;99.90
20740;DHT22;10530;49.968;19.844;2023-12-07T19:06:00;-0.60;99.90
20740;DHT22;10530;49.968;19.844;2023-12-07T19:11:06;-0.60;99.90
20740;DHT22;10530;49.968;19.844;2023-12-07T19:16:09;-0.60;99.90
20740;DHT22;10530;49.968;19.844;2023-12-07T19:21:12;-0.60;99.90
20740;DHT22;10530;49.968;19.844;2023-12-07T19:26:15;-0.60;99.90
20740;DHT22;10530;49.968;19.844;2023-12-07T19:31:18;-0.70;99.90
20740;DHT22;10530;49.968;19.844;2023-12-07T19:36:22;-0.60;99.90
20740;DHT22;10530;49.968;19.844;2023-12-07T19:41:25;-0.60;99.90
20740;DHT22;10530;49.968;19.844;2023-12-07T19:46:28;-0.60;99.90
20740;DHT22;10530;49.968;19.844;2023-12-07T19:51:31;-0.50;99.90
20740;DHT22;10530;49.968;19.844;2023-12-07T19:56:34;-0.50;99.90
20740;DHT22;10530;49.968;19.844;2023-12-07T20:01:37;-0.50;99.90
20740;DHT22;10530;49.968;19.844;2023-12-07T20:06:41;-0.50;99.90
20740;DHT22;10530;49.968;19.844;2023-12-07T20:11:44;-0.50;99.90
20740;DHT22;10530;49.968;19.844;2023-12-07T20:16:48;-0.50;99.90
20740;DHT22;10530;49.968;19.844;2023-12-07T20:21:51;-0.40;99.90
20740;DHT22;10530;49.968;19.844;2023-12-07T20:26:54;-0.40;99.90
20740;DHT22;10530;49.968;19.844;2023-12-07T20:31:57;-0.40;99.90
20740;DHT22;10530;49.968;19.844;2023-12-07T20:37:00;-0.40;99.90
20740;DHT22;10530;49.968;19.844;2023-12-07T20:42:03;-0.40;99.90
20740;DHT22;10530;49.968;19.844;2023-12-07T20:47:09;-0.40;99.90
20740;DHT22;10530;49.968;19.844;2023-12-07T20:52:12;-0.40;99.90
20740;DHT22;10530;49.968;19.844;2023-12-07T20:57:15;-0.30;99.90
20740;DHT22;10530;49.968;19.844;2023-12-07T21:02:20;-0.40;99.90
20740;DHT22;10530;49.968;19.844;2023-12-07T21:07:23;-0.30;99.90
20740;DHT22;10530;49.968;19.844;2023-12-07T21:12:26;-0.40;99.90
20740;DHT22;10530;49.968;19.844;2023-12-07T21:17:30;-0.30;99.90
20740;DHT22;10530;49.968;19.844;2023-12-07T21:22:33;-0.30;99.90
20740;DHT22;10530;49.968;19.844;2023-12-07T21:27:36;-0.30;99.90
20740;DHT22;10530;49.968;19.844;2023-12-07T21:32:40;-0.30;99.90
20740;DHT22;10530;49.968;19.844;2023-12-07T21:37:44;-0.30;99.90
20740;DHT22;10530;49.968;19.844;2023-12-07T21:42:47;-0.30;99.90
20740;DHT22;10530;49.968;19.844;2023-12-07T21:47:53;-0.30;99.90
20740;DHT22;10530;49.968;19.844;2023-12-07T21:52:56;-0.30;99.90
20740;DHT22;10530;49.968;19.844;2023-12-07T21:57:59;-0.30;99.90
20740;DHT22;10530;49.968;19.844;2023-12-07T22:03:02;-0.30;99.90
20740;DHT22;10530;49.968;19.844;2023-12-07T22:08:06;-0.20;99.90
20740;DHT22;10530;49.968;19.844;2023-12-07T22:13:09;-0.30;99.90
20740;DHT22;10530;49.968;19.844;2023-12-07T22:18:12;-0.30;99.90
20740;DHT22;10530;49.968;19.844;2023-12-07T22:23:15;-0.30;99.90
20740;DHT22;10530;49.968;19.844;2023-12-07T22:28:18;-0.30;99.90
20740;DHT22;10530;49.968;19.844;2023-12-07T22:33:21;-0.40;99.90
20740;DHT22;10530;49.968;19.844;2023-12-07T22:38:24;-0.30;99.90
20740;DHT22;10530;49.968;19.844;2023-12-07T22:43:28;-0.30;99.90
20740;DHT22;10530;49.968;19.844;2023-12-07T22:48:31;-0.30;99.90
20740;DHT22;10530;49.968;19.844;2023-12-07T22:53:34;-0.40;99.90
20740;DHT22;10530;49.968;19.844;2023-12-07T22:58:37;-0.40;99.90
20740;DHT22;10530;49.968;19.844;2023-12-07T23:03:40;-0.30;99.90
20740;DHT22;10530;49.968;19.844;2023-12-07T23:08:43;-0.30;99.90
20740;DHT22;10530;49.968;19.844;2023-12-07T23:13:46;-0.20;99.90
20740;DHT22;10530;49.968;19.844;2023-12-07T23:18:49;-0.20;99.90
20740;DHT22;10530;49.968;19.844;2023-12-07T23:23:52;-0.20;99.90
20740;DHT22;10530;49.968;19.844;2023-12-07T23:28:55;-0.20;99.90
20740;DHT22;10530;49.968;19.844;2023-12-07T23:33:58;-0.20;99.90
20740;DHT22;10530;49.968;19.844;2023-12-07T23:39:01;-0.20;99.90
20740;DHT22;10530;49.968;19.844;2023-12-07T23:44:04;-0.30;99.90
20740;DHT22;10530;49.968;19.844;2023-12-07T23:49:07;-0.30;99.90
20740;DHT22;10530;49.968;19.844;2023-12-07T23:54:10;-0.30;99.90
20740;DHT22;10530;49.968;19.844;2023-12-07T23:59:13;-0.30;99.90
